Time;durP1;ratioP1;P1;durP2;ratioP2;P2;SDS_P1;SDS_P2;PMS_P1;PMS_P2;Temp;Humidity;BMP_temperature;BMP_pressure;BME280_temperature;BME280_humidity;BME280_pressure;Samples;Min_cycle;Max_cycle;Signal;HPM_P1;HPM_P2
2022/05/26 00:02:22;;;;;;;13.57;10.32;;;;;;;;;;5053630;28;20048;-31
2022/05/26 00:04:48;;;;;;;16.08;10.55;;;;;;;;;;5053710;28;20047;-32
2022/05/26 00:07:14;;;;;;;17.05;11.00;;;;;;;;;;5053580;28;20502;-33
2022/05/26 00:09:41;;;;;;;15.88;10.65;;;;;;;;;;5053135;28;20045;-30
2022/05/26 00:12:08;;;;;;;13.85;10.27;;;;;;;;;;5052632;28;20517;-32
2022/05/26 00:14:34;;;;;;;17.27;11.75;;;;;;;;;;5053260;28;20445;-30
2022/05/26 00:17:01;;;;;;;16.08;11.45;;;;;;;;;;5053395;28;20116;-32
2022/05/26 00:19:27;;;;;;;18.63;11.60;;;;;;;;;;5052547;28;20045;-30
2022/05/26 00:21:53;;;;;;;14.85;10.85;;;;;;;;;;5053318;28;20398;-30
2022/05/26 00:24:21;;;;;;;16.60;11.68;;;;;;;;;;5052249;28;20045;-29
2022/05/26 00:26:47;;;;;;;21.27;13.15;;;;;;;;;;5052279;28;20564;-30
2022/05/26 00:29:13;;;;;;;17.42;11.80;;;;;;;;;;5052363;28;20036;-31
2022/05/26 00:31:39;;;;;;;18.63;12.55;;;;;;;;;;5052849;28;20033;-30
2022/05/26 00:34:05;;;;;;;21.38;13.48;;;;;;;;;;5052861;28;20048;-31
2022/05/26 00:36:37;;;;;;;21.88;13.32;;;;;;;;;;5052583;28;20040;-30
2022/05/26 00:39:11;;;;;;;17.67;13.70;;;;;;;;;;5052011;28;20542;-30
2022/05/26 00:41:42;;;;;;;18.00;13.05;;;;;;;;;;5052735;28;20041;-30
2022/05/26 00:44:08;;;;;;;25.50;13.65;;;;;;;;;;5052613;28;20060;-32
2022/05/26 00:46:37;;;;;;;18.00;12.70;;;;;;;;;;5052222;28;20041;-31
2022/05/26 00:49:03;;;;;;;19.00;12.60;;;;;;;;;;5052337;28;20037;-30
2022/05/26 00:51:34;;;;;;;21.33;14.13;;;;;;;;;;5052663;28;20509;-31
2022/05/26 00:54:03;;;;;;;18.40;13.82;;;;;;;;;;5052178;28;20170;-31
2022/05/26 00:56:32;;;;;;;24.48;13.52;;;;;;;;;;5051838;28;20053;-31
2022/05/26 00:59:03;;;;;;;21.25;13.95;;;;;;;;;;5052481;28;20033;-32
2022/05/26 01:01:30;;;;;;;22.95;14.02;;;;;;;;;;5051927;28;20037;-31
2022/05/26 01:03:57;;;;;;;23.52;14.55;;;;;;;;;;5052072;28;20036;-30
2022/05/26 01:06:26;;;;;;;22.08;14.27;;;;;;;;;;5052037;28;20124;-31
2022/05/26 01:08:59;;;;;;;21.30;14.18;;;;;;;;;;5051689;28;20041;-31
2022/05/26 01:11:27;;;;;;;20.80;13.43;;;;;;;;;;5051904;28;20395;-31
2022/05/26 01:13:55;;;;;;;24.02;14.77;;;;;;;;;;5052215;28;20037;-30
2022/05/26 01:16:40;;;;;;;23.55;13.75;;;;;;;;;;5052056;28;20041;-31
2022/05/26 01:19:19;;;;;;;25.38;14.52;;;;;;;;;;5051546;28;20095;-31
2022/05/26 01:21:53;;;;;;;22.75;14.07;;;;;;;;;;5051470;28;20037;-31
2022/05/26 01:24:28;;;;;;;26.45;14.20;;;;;;;;;;5051423;28;20040;-30
2022/05/26 01:26:57;;;;;;;20.85;14.07;;;;;;;;;;5051888;28;20039;-31
2022/05/26 01:29:37;;;;;;;21.85;14.68;;;;;;;;;;5051034;28;20033;-29
2022/05/26 01:32:17;;;;;;;23.25;14.77;;;;;;;;;;5052081;28;20044;-32
2022/05/26 01:34:55;;;;;;;19.88;14.27;;;;;;;;;;5051368;28;20094;-31
2022/05/26 01:37:21;;;;;;;26.83;14.63;;;;;;;;;;5031604;28;20048;-31
2022/05/26 01:40:00;;;;;;;22.73;14.65;;;;;;;;;;5031628;28;20055;-30
2022/05/26 01:42:37;;;;;;;29.83;16.13;;;;;;;;;;5031484;28;20049;-32
2022/05/26 01:45:12;;;;;;;26.60;15.48;;;;;;;;;;5036453;28;20080;-30
2022/05/26 01:47:44;;;;;;;24.90;15.07;;;;;;;;;;5013675;28;20041;-30
2022/05/26 01:50:25;;;;;;;28.52;15.85;;;;;;;;;;5031191;28;20069;-30
2022/05/26 01:53:09;;;;;;;23.42;15.48;;;;;;;;;;5031388;28;20049;-31
2022/05/26 01:55:35;;;;;;;24.88;14.85;;;;;;;;;;5037900;28;20039;-32
2022/05/26 01:58:13;;;;;;;28.23;15.25;;;;;;;;;;5050856;28;20037;-31
2022/05/26 02:00:40;;;;;;;25.45;16.98;;;;;;;;;;5051219;28;20099;-34
2022/05/26 02:03:08;;;;;;;28.80;16.73;;;;;;;;;;5051089;28;20047;-31
2022/05/26 02:05:38;;;;;;;27.33;16.23;;;;;;;;;;5050422;28;20079;-31
2022/05/26 02:08:04;;;;;;;28.88;16.55;;;;;;;;;;5050814;28;20048;-32
2022/05/26 02:10:34;;;;;;;25.52;15.77;;;;;;;;;;5051448;28;20045;-32
2022/05/26 02:13:09;;;;;;;27.83;15.45;;;;;;;;;;5051614;28;20116;-29
2022/05/26 02:15:41;;;;;;;28.02;16.92;;;;;;;;;;5052542;28;20091;-29
2022/05/26 02:18:16;;;;;;;29.52;17.08;;;;;;;;;;5052188;28;20060;-28
2022/05/26 02:20:50;;;;;;;29.08;17.45;;;;;;;;;;5052044;28;20099;-27
2022/05/26 02:23:26;;;;;;;26.55;17.00;;;;;;;;;;5051810;28;20044;-29
2022/05/26 02:25:53;;;;;;;26.20;16.00;;;;;;;;;;5051569;28;20047;-28
2022/05/26 02:28:19;;;;;;;32.97;16.63;;;;;;;;;;5051560;28;20112;-29
2022/05/26 02:30:45;;;;;;;29.60;16.85;;;;;;;;;;5051170;28;20064;-28
2022/05/26 02:33:14;;;;;;;30.23;17.08;;;;;;;;;;5033426;28;20297;-28
2022/05/26 02:35:41;;;;;;;33.90;17.60;;;;;;;;;;5051494;28;20076;-33
2022/05/26 02:38:09;;;;;;;29.25;15.73;;;;;;;;;;5051330;28;20498;-32
2022/05/26 02:40:35;;;;;;;32.15;16.80;;;;;;;;;;5051756;28;20049;-28
2022/05/26 02:43:03;;;;;;;25.42;16.00;;;;;;;;;;5052395;28;20115;-28
2022/05/26 02:45:38;;;;;;;25.60;15.43;;;;;;;;;;5051883;28;20406;-29
2022/05/26 02:48:04;;;;;;;34.33;15.93;;;;;;;;;;5051216;28;20132;-29
2022/05/26 02:50:38;;;;;;;31.67;16.92;;;;;;;;;;5051248;28;20076;-29
2022/05/26 02:53:04;;;;;;;31.58;16.20;;;;;;;;;;5051071;28;20091;-29
2022/05/26 02:55:36;;;;;;;27.83;15.80;;;;;;;;;;5051351;28;20037;-29
2022/05/26 02:58:05;;;;;;;31.05;16.00;;;;;;;;;;5051072;28;20033;-29
2022/05/26 03:00:36;;;;;;;30.65;15.63;;;;;;;;;;5050914;28;20067;-29
2022/05/26 03:03:25;;;;;;;26.98;15.70;;;;;;;;;;5051186;28;20163;-30
2022/05/26 03:05:54;;;;;;;31.58;16.15;;;;;;;;;;5050856;28;20045;-29
2022/05/26 03:08:22;;;;;;;30.40;15.57;;;;;;;;;;5050830;28;20391;-30
2022/05/26 03:10:50;;;;;;;30.83;16.35;;;;;;;;;;5050960;28;20045;-28
2022/05/26 03:13:17;;;;;;;25.85;14.70;;;;;;;;;;5051072;28;20048;-28
2022/05/26 03:15:43;;;;;;;31.30;16.00;;;;;;;;;;5050957;28;20056;-30
2022/05/26 03:18:09;;;;;;;25.45;15.57;;;;;;;;;;5053508;28;20095;-30
2022/05/26 03:20:36;;;;;;;34.70;16.15;;;;;;;;;;5055579;28;20050;-29
2022/05/26 03:23:02;;;;;;;34.30;15.57;;;;;;;;;;5055808;28;20122;-29
2022/05/26 03:25:28;;;;;;;32.03;14.85;;;;;;;;;;5055483;28;20049;-29
2022/05/26 03:27:54;;;;;;;27.80;14.20;;;;;;;;;;5054487;28;20041;-30
2022/05/26 03:30:21;;;;;;;34.08;15.63;;;;;;;;;;5054551;28;20128;-29
2022/05/26 03:32:47;;;;;;;28.95;14.48;;;;;;;;;;5054223;28;20045;-29
2022/05/26 03:40:55;;;;;;;26.67;14.52;;;;;;;;;;5054515;28;20045;-29
2022/05/26 03:43:23;;;;;;;28.42;14.35;;;;;;;;;;5054036;28;20126;-30
2022/05/26 03:45:49;;;;;;;30.98;14.40;;;;;;;;;;5054339;28;20079;-29
2022/05/26 03:48:15;;;;;;;28.10;14.13;;;;;;;;;;5054290;28;20124;-29
2022/05/26 03:50:41;;;;;;;33.22;13.85;;;;;;;;;;5053750;28;20056;-30
2022/05/26 03:53:07;;;;;;;27.70;13.93;;;;;;;;;;5054108;28;20041;-29
2022/05/26 03:55:33;;;;;;;25.05;13.85;;;;;;;;;;5054138;28;20045;-29
2022/05/26 03:58:01;;;;;;;30.80;13.25;;;;;;;;;;5053948;28;20080;-29
2022/05/26 04:00:28;;;;;;;35.35;13.63;;;;;;;;;;5053659;28;20389;-29
2022/05/26 04:02:54;;;;;;;32.80;12.77;;;;;;;;;;5054053;28;20529;-29
2022/05/26 04:05:20;;;;;;;33.70;13.95;;;;;;;;;;5053713;28;20487;-29
2022/05/26 04:07:46;;;;;;;24.75;12.35;;;;;;;;;;5053463;28;20041;-29
2022/05/26 04:10:13;;;;;;;33.55;12.25;;;;;;;;;;5054481;28;20044;-29
2022/05/26 04:12:42;;;;;;;29.90;12.65;;;;;;;;;;5054750;28;20049;-30
2022/05/26 04:15:08;;;;;;;34.03;12.48;;;;;;;;;;5054906;28;20072;-29
2022/05/26 04:17:36;;;;;;;28.30;11.48;;;;;;;;;;5054881;28;20494;-30
2022/05/26 04:20:02;;;;;;;31.42;11.77;;;;;;;;;;5054365;28;20036;-29
2022/05/26 04:22:28;;;;;;;24.83;10.82;;;;;;;;;;5054542;28;20086;-29
2022/05/26 04:24:55;;;;;;;26.23;10.85;;;;;;;;;;5020183;28;20049;-30
2022/05/26 04:27:22;;;;;;;26.02;10.38;;;;;;;;;;5054077;28;20045;-30
2022/05/26 04:29:48;;;;;;;23.17;9.85;;;;;;;;;;5054508;28;20049;-29
2022/05/26 04:32:14;;;;;;;23.08;9.43;;;;;;;;;;5053205;28;20037;-30
2022/05/26 04:34:42;;;;;;;18.25;8.20;;;;;;;;;;5034330;28;20041;-30
2022/05/26 04:37:08;;;;;;;17.58;7.20;;;;;;;;;;5034071;28;20046;-28
2022/05/26 04:39:34;;;;;;;19.73;7.43;;;;;;;;;;5032533;28;20052;-28
2022/05/26 04:42:01;;;;;;;19.13;6.53;;;;;;;;;;5031429;28;20045;-31
2022/05/26 04:44:32;;;;;;;16.75;6.13;;;;;;;;;;5038534;28;20041;-32
2022/05/26 04:46:58;;;;;;;17.27;5.38;;;;;;;;;;5051285;28;20079;-30
2022/05/26 04:49:25;;;;;;;15.88;4.88;;;;;;;;;;5051002;28;20410;-32
2022/05/26 04:51:51;;;;;;;15.25;4.40;;;;;;;;;;5051052;28;20037;-30
2022/05/26 04:54:17;;;;;;;9.73;4.15;;;;;;;;;;5051450;28;20083;-31
2022/05/26 04:56:43;;;;;;;13.68;4.90;;;;;;;;;;5053287;28;20056;-31
2022/05/26 04:59:09;;;;;;;11.45;3.65;;;;;;;;;;5052514;28;20434;-30
2022/05/26 05:01:36;;;;;;;9.15;2.75;;;;;;;;;;5035188;28;20292;-31
2022/05/26 05:04:02;;;;;;;10.88;3.33;;;;;;;;;;5053149;28;20033;-31
2022/05/26 05:06:28;;;;;;;12.80;3.63;;;;;;;;;;5052080;28;20040;-31
2022/05/26 05:08:54;;;;;;;7.00;3.03;;;;;;;;;;5052499;28;20037;-31
2022/05/26 05:11:21;;;;;;;7.32;3.20;;;;;;;;;;5041946;28;20491;-30
2022/05/26 05:13:47;;;;;;;10.60;3.13;;;;;;;;;;5020533;28;20033;-29
2022/05/26 05:16:17;;;;;;;8.73;3.40;;;;;;;;;;5033511;28;20037;-29
2022/05/26 05:18:44;;;;;;;8.98;3.05;;;;;;;;;;5033238;28;20449;-31
2022/05/26 05:21:12;;;;;;;11.95;3.47;;;;;;;;;;5033291;28;20042;-30
2022/05/26 05:23:40;;;;;;;11.35;2.80;;;;;;;;;;5033321;28;20051;-30
2022/05/26 05:26:10;;;;;;;9.38;2.60;;;;;;;;;;5032891;28;20041;-30
2022/05/26 05:28:37;;;;;;;10.25;3.00;;;;;;;;;;5032834;28;20052;-30
2022/05/26 05:31:13;;;;;;;7.35;2.33;;;;;;;;;;5032787;28;20072;-33
2022/05/26 05:33:42;;;;;;;9.90;2.72;;;;;;;;;;5032447;28;20487;-33
2022/05/26 05:36:17;;;;;;;5.50;2.22;;;;;;;;;;5032316;28;20077;-33
2022/05/26 05:38:44;;;;;;;5.97;2.20;;;;;;;;;;5032315;28;20065;-32
2022/05/26 05:41:10;;;;;;;9.52;2.95;;;;;;;;;;5032076;28;20057;-34
2022/05/26 05:43:38;;;;;;;5.75;2.17;;;;;;;;;;5039874;28;20043;-32
2022/05/26 05:46:04;;;;;;;7.07;2.60;;;;;;;;;;5051851;28;20090;-32
2022/05/26 05:48:31;;;;;;;7.38;2.40;;;;;;;;;;5051723;28;20052;-33
2022/05/26 05:50:57;;;;;;;3.65;1.70;;;;;;;;;;5034011;28;20510;-33
2022/05/26 05:53:23;;;;;;;4.93;2.33;;;;;;;;;;5052402;28;20433;-31
2022/05/26 05:55:50;;;;;;;8.90;2.08;;;;;;;;;;5051980;28;20064;-33
2022/05/26 05:58:16;;;;;;;6.00;2.00;;;;;;;;;;5051203;28;20040;-33
2022/05/26 06:00:43;;;;;;;4.68;1.67;;;;;;;;;;5051788;28;20162;-33
2022/05/26 06:03:09;;;;;;;6.35;2.13;;;;;;;;;;5052306;28;20053;-33
2022/05/26 06:05:36;;;;;;;4.57;1.85;;;;;;;;;;5045255;28;20036;-33
2022/05/26 06:08:03;;;;;;;4.78;1.45;;;;;;;;;;5046247;28;20498;-31
2022/05/26 06:10:30;;;;;;;5.43;1.70;;;;;;;;;;5039311;28;20572;-33
2022/05/26 06:12:56;;;;;;;5.38;1.58;;;;;;;;;;5043007;28;21762;-33
2022/05/26 06:15:23;;;;;;;7.88;2.03;;;;;;;;;;5039170;28;20087;-33
2022/05/26 06:17:49;;;;;;;4.13;1.88;;;;;;;;;;5040132;28;20127;-31
2022/05/26 06:20:15;;;;;;;9.65;2.10;;;;;;;;;;5045065;28;20041;-32
2022/05/26 06:22:42;;;;;;;5.32;1.63;;;;;;;;;;5039916;28;20046;-35
2022/05/26 06:25:09;;;;;;;4.55;1.50;;;;;;;;;;5051021;28;20133;-32
2022/05/26 06:30:21;;;;;;;4.63;1.50;;;;;;;;;;5049996;28;20135;-32
2022/05/26 06:38:23;;;;;;;5.07;1.52;;;;;;;;;;5036015;28;20041;-30
2022/05/26 06:40:50;;;;;;;3.13;1.10;;;;;;;;;;5042971;28;20106;-31
2022/05/26 06:43:17;;;;;;;3.60;1.40;;;;;;;;;;5039040;28;20048;-32
2022/05/26 06:45:44;;;;;;;7.05;1.30;;;;;;;;;;5032581;28;20137;-30
2022/05/26 06:48:10;;;;;;;4.43;1.48;;;;;;;;;;5031330;28;20128;-31
2022/05/26 06:50:38;;;;;;;2.60;1.58;;;;;;;;;;5037354;28;20146;-34
2022/05/26 06:53:04;;;;;;;3.78;1.33;;;;;;;;;;5043762;28;20046;-34
2022/05/26 06:55:30;;;;;;;5.93;1.25;;;;;;;;;;5043418;28;20513;-31
2022/05/26 06:57:56;;;;;;;3.53;1.10;;;;;;;;;;5039555;28;20045;-30
2022/05/26 07:00:22;;;;;;;3.08;1.17;;;;;;;;;;5015806;28;20076;-31
2022/05/26 07:02:48;;;;;;;4.45;1.10;;;;;;;;;;5041579;28;20324;-33
2022/05/26 07:05:15;;;;;;;2.17;1.05;;;;;;;;;;5048390;28;20049;-31
2022/05/26 07:07:41;;;;;;;3.30;1.10;;;;;;;;;;5043236;28;20036;-32
2022/05/26 07:10:08;;;;;;;4.80;1.30;;;;;;;;;;5032940;28;20244;-30
2022/05/26 07:12:35;;;;;;;4.55;1.10;;;;;;;;;;5041277;28;20037;-32
2022/05/26 07:15:03;;;;;;;4.93;1.10;;;;;;;;;;5040123;28;20037;-32
2022/05/26 07:17:29;;;;;;;4.30;1.40;;;;;;;;;;5022066;28;20484;-32
2022/05/26 07:19:55;;;;;;;3.30;1.17;;;;;;;;;;5044915;28;20051;-33
2022/05/26 07:22:22;;;;;;;2.95;0.77;;;;;;;;;;5042955;28;20041;-34
2022/05/26 07:24:49;;;;;;;4.18;1.23;;;;;;;;;;5047039;28;20040;-30
2022/05/26 07:27:15;;;;;;;5.97;1.40;;;;;;;;;;5052084;28;20067;-32
2022/05/26 07:29:41;;;;;;;4.55;1.35;;;;;;;;;;5037907;28;20045;-33
2022/05/26 07:32:08;;;;;;;4.05;1.15;;;;;;;;;;5045239;28;20032;-32
2022/05/26 07:34:34;;;;;;;4.53;1.45;;;;;;;;;;5035690;28;20041;-37
2022/05/26 07:42:31;;;;;;;5.25;1.33;;;;;;;;;;5033883;28;20124;-31
2022/05/26 07:44:58;;;;;;;7.05;1.40;;;;;;;;;;5016549;28;20430;-32
2022/05/26 07:47:26;;;;;;;4.35;1.08;;;;;;;;;;5033992;28;20045;-33
2022/05/26 07:49:52;;;;;;;4.00;1.10;;;;;;;;;;5047729;28;20045;-32
2022/05/26 07:52:19;;;;;;;2.40;0.80;;;;;;;;;;5034270;28;20051;-33
2022/05/26 07:54:45;;;;;;;3.78;1.15;;;;;;;;;;5033442;28;20065;-33
2022/05/26 07:57:20;;;;;;;2.35;0.80;;;;;;;;;;5033809;28;20076;-33
2022/05/26 07:59:47;;;;;;;2.70;0.90;;;;;;;;;;5040310;28;20143;-30
2022/05/26 08:02:13;;;;;;;2.50;0.80;;;;;;;;;;5040182;28;20041;-31
2022/05/26 08:04:39;;;;;;;1.80;0.50;;;;;;;;;;5047546;28;20048;-29
2022/05/26 08:07:05;;;;;;;3.25;0.85;;;;;;;;;;5054468;28;20040;-30
2022/05/26 08:09:32;;;;;;;2.78;0.98;;;;;;;;;;5054364;28;20049;-30
2022/05/26 08:11:58;;;;;;;2.58;0.93;;;;;;;;;;5041181;28;20041;-30
2022/05/26 08:14:25;;;;;;;5.03;1.08;;;;;;;;;;5041305;28;20029;-32
2022/05/26 08:16:51;;;;;;;5.10;1.23;;;;;;;;;;5054063;28;20116;-31
2022/05/26 08:19:18;;;;;;;3.08;0.90;;;;;;;;;;5044528;28;20217;-30
2022/05/26 08:21:44;;;;;;;1.83;0.80;;;;;;;;;;5053571;28;20040;-30
2022/05/26 08:24:10;;;;;;;4.90;1.08;;;;;;;;;;5054149;28;20471;-29
2022/05/26 08:26:37;;;;;;;2.38;0.95;;;;;;;;;;5053898;28;20052;-31
2022/05/26 08:29:03;;;;;;;2.50;0.70;;;;;;;;;;5040075;28;20033;-32
2022/05/26 08:31:29;;;;;;;3.97;0.93;;;;;;;;;;5039100;28;20041;-32
2022/05/26 08:33:55;;;;;;;5.82;1.45;;;;;;;;;;5042130;28;20084;-31
2022/05/26 08:36:28;;;;;;;2.15;0.98;;;;;;;;;;5039968;28;20091;-31
2022/05/26 08:38:55;;;;;;;3.08;1.02;;;;;;;;;;5035563;28;20124;-31
2022/05/26 08:41:25;;;;;;;2.45;1.00;;;;;;;;;;5051209;28;20051;-33
2022/05/26 08:43:54;;;;;;;1.48;0.80;;;;;;;;;;5052671;28;20047;-30
2022/05/26 08:46:20;;;;;;;3.88;0.98;;;;;;;;;;5052998;28;20037;-32
2022/05/26 08:48:57;;;;;;;1.77;0.73;;;;;;;;;;5052757;28;20044;-31
2022/05/26 08:51:43;;;;;;;2.10;0.57;;;;;;;;;;5043495;28;20060;-33
2022/05/26 08:54:16;;;;;;;2.97;1.00;;;;;;;;;;5037783;28;20502;-32
2022/05/26 08:56:43;;;;;;;4.93;1.00;;;;;;;;;;5034737;28;20100;-34
2022/05/26 08:59:11;;;;;;;3.40;0.80;;;;;;;;;;5048812;28;20045;-32
2022/05/26 09:01:38;;;;;;;2.08;0.88;;;;;;;;;;5052102;28;20040;-34
2022/05/26 09:04:05;;;;;;;2.10;0.60;;;;;;;;;;5031717;28;20048;-33
2022/05/26 09:12:55;;;;;;;2.78;0.80;;;;;;;;;;5048738;28;20048;-33
2022/05/26 09:15:05;;;;;;;1.73;0.75;;;;;;;;;;5051741;28;20047;-34
2022/05/26 09:17:32;;;;;;;1.75;0.88;;;;;;;;;;5051769;28;20087;-31
2022/05/26 09:20:02;;;;;;;4.22;1.00;;;;;;;;;;5051573;28;20048;-34
2022/05/26 09:22:28;;;;;;;2.72;0.60;;;;;;;;;;5039885;28;20067;-32
2022/05/26 09:24:55;;;;;;;3.00;0.95;;;;;;;;;;5039021;28;20098;-32
2022/05/26 09:27:27;;;;;;;2.85;0.80;;;;;;;;;;5042591;28;20064;-32
2022/05/26 09:29:53;;;;;;;3.10;0.77;;;;;;;;;;5038395;28;20510;-32
2022/05/26 09:32:19;;;;;;;4.68;1.02;;;;;;;;;;5050918;28;20045;-33
2022/05/26 09:35:11;;;;;;;2.00;0.82;;;;;;;;;;5050857;28;20037;-32
2022/05/26 09:37:40;;;;;;;3.60;0.82;;;;;;;;;;5032903;28;20040;-33
2022/05/26 09:40:13;;;;;;;1.92;0.90;;;;;;;;;;5051251;28;20052;-33
2022/05/26 09:42:41;;;;;;;2.15;0.77;;;;;;;;;;5051184;28;20446;-34
2022/05/26 09:45:10;;;;;;;2.30;0.80;;;;;;;;;;5033673;28;20055;-31
2022/05/26 09:47:45;;;;;;;3.75;1.13;;;;;;;;;;5050557;28;20056;-34
2022/05/26 09:50:16;;;;;;;4.93;1.38;;;;;;;;;;5050130;28;20048;-34
2022/05/26 09:52:45;;;;;;;2.95;1.00;;;;;;;;;;5050320;28;20114;-33
2022/05/26 09:55:16;;;;;;;3.30;1.00;;;;;;;;;;5040328;28;20033;-32
2022/05/26 09:57:42;;;;;;;3.92;1.02;;;;;;;;;;5042374;28;20393;-33
2022/05/26 10:00:19;;;;;;;3.85;0.95;;;;;;;;;;5047459;28;20041;-32
2022/05/26 10:02:46;;;;;;;2.47;0.80;;;;;;;;;;5049934;28;20040;-33
2022/05/26 10:05:20;;;;;;;1.50;0.73;;;;;;;;;;5049871;28;20036;-32
2022/05/26 10:07:46;;;;;;;3.30;1.10;;;;;;;;;;5050489;28;20506;-33
2022/05/26 10:10:19;;;;;;;2.40;0.50;;;;;;;;;;5050224;28;20055;-32
2022/05/26 10:13:11;;;;;;;2.53;1.00;;;;;;;;;;5050660;28;20052;-34
2022/05/26 10:15:40;;;;;;;2.60;0.80;;;;;;;;;;5027050;28;20041;-33
2022/05/26 10:18:12;;;;;;;1.80;0.80;;;;;;;;;;5050172;28;20074;-32
2022/05/26 10:20:59;;;;;;;3.42;0.90;;;;;;;;;;5050532;28;20037;-33
2022/05/26 10:23:25;;;;;;;1.80;0.88;;;;;;;;;;5050542;28;20098;-33
2022/05/26 10:25:51;;;;;;;3.08;0.95;;;;;;;;;;5050297;28;20494;-31
2022/05/26 10:28:36;;;;;;;3.08;1.17;;;;;;;;;;5050061;28;20040;-33
2022/05/26 10:31:14;;;;;;;2.90;1.23;;;;;;;;;;5050309;28;20040;-33
2022/05/26 10:33:49;;;;;;;2.95;0.70;;;;;;;;;;5050624;28;20037;-35
2022/05/26 10:36:15;;;;;;;3.25;1.00;;;;;;;;;;5050957;28;20111;-34
2022/05/26 10:39:00;;;;;;;2.40;1.02;;;;;;;;;;5050449;28;20076;-33
2022/05/26 10:41:32;;;;;;;3.38;0.95;;;;;;;;;;5050456;28;20765;-32
2022/05/26 10:43:58;;;;;;;2.22;1.05;;;;;;;;;;5050363;28;20041;-32
2022/05/26 10:46:26;;;;;;;3.92;1.13;;;;;;;;;;5046968;28;20037;-32
2022/05/26 10:49:06;;;;;;;1.42;1.02;;;;;;;;;;5046829;28;20040;-35
2022/05/26 10:51:35;;;;;;;2.50;1.00;;;;;;;;;;5035666;28;20116;-31
2022/05/26 10:54:15;;;;;;;3.30;1.40;;;;;;;;;;5050873;28;20495;-33
2022/05/26 10:56:42;;;;;;;2.85;1.33;;;;;;;;;;5050397;28;20503;-34
2022/05/26 10:59:18;;;;;;;2.92;1.20;;;;;;;;;;5050351;28;20041;-35
2022/05/26 11:01:46;;;;;;;3.92;1.20;;;;;;;;;;5049849;28;20044;-32
2022/05/26 11:04:22;;;;;;;3.20;1.38;;;;;;;;;;5050913;28;20040;-33
2022/05/26 11:06:51;;;;;;;5.28;1.42;;;;;;;;;;5050421;28;20518;-32
2022/05/26 11:09:36;;;;;;;3.67;1.42;;;;;;;;;;5049789;28;20041;-32
2022/05/26 11:12:06;;;;;;;3.95;1.30;;;;;;;;;;5050290;28;20174;-33
2022/05/26 11:17:36;;;;;;;3.17;1.70;;;;;;;;;;5049736;28;20044;-31
2022/05/26 11:20:07;;;;;;;5.05;1.70;;;;;;;;;;5044257;28;20033;-34
2022/05/26 11:22:34;;;;;;;4.22;1.73;;;;;;;;;;5033847;28;20108;-33
2022/05/26 11:25:00;;;;;;;6.15;2.30;;;;;;;;;;5032376;28;20037;-33
2022/05/26 11:27:35;;;;;;;2.65;1.50;;;;;;;;;;5048765;28;20120;-34
2022/05/26 11:30:03;;;;;;;2.35;1.33;;;;;;;;;;5048899;28;20048;-32
2022/05/26 11:38:08;;;;;;;3.33;1.33;;;;;;;;;;5032845;28;20506;-31
2022/05/26 11:40:45;;;;;;;3.70;1.58;;;;;;;;;;5035794;28;20113;-33
2022/05/26 11:43:11;;;;;;;3.63;1.40;;;;;;;;;;5043251;28;20072;-33
2022/05/26 11:45:51;;;;;;;2.80;1.10;;;;;;;;;;5017079;28;20491;-33
2022/05/26 11:48:33;;;;;;;2.95;1.20;;;;;;;;;;5039344;28;20052;-32
2022/05/26 11:51:04;;;;;;;3.63;1.17;;;;;;;;;;5031865;28;20101;-34
2022/05/26 11:53:33;;;;;;;3.45;1.42;;;;;;;;;;5046263;28;20044;-34
2022/05/26 11:56:04;;;;;;;5.00;1.13;;;;;;;;;;5040009;28;20038;-35
2022/05/26 11:58:31;;;;;;;1.13;0.77;;;;;;;;;;5021460;28;20402;-33
2022/05/26 12:01:12;;;;;;;3.08;1.10;;;;;;;;;;5022957;28;20551;-33
2022/05/26 12:03:53;;;;;;;5.80;1.40;;;;;;;;;;5040037;28;20041;-33
2022/05/26 12:06:40;;;;;;;2.30;1.02;;;;;;;;;;5042561;28;20071;-32
2022/05/26 12:09:06;;;;;;;3.75;1.13;;;;;;;;;;5040909;28;20053;-33
2022/05/26 12:11:50;;;;;;;2.45;1.00;;;;;;;;;;5037679;28;20068;-33
2022/05/26 12:14:36;;;;;;;1.95;1.00;;;;;;;;;;5038908;28;20408;-33
2022/05/26 12:17:23;;;;;;;4.65;1.35;;;;;;;;;;5033452;28;20029;-32
2022/05/26 12:19:49;;;;;;;4.65;1.45;;;;;;;;;;5039360;28;20049;-32
2022/05/26 12:22:26;;;;;;;3.10;1.15;;;;;;;;;;5042184;28;20099;-34
2022/05/26 12:24:58;;;;;;;4.00;1.38;;;;;;;;;;5037364;28;20044;-34
2022/05/26 12:27:43;;;;;;;4.95;1.25;;;;;;;;;;5042019;28;20048;-33
2022/05/26 12:30:10;;;;;;;4.65;1.33;;;;;;;;;;5044892;28;20041;-35
2022/05/26 12:32:38;;;;;;;4.63;1.38;;;;;;;;;;5045606;28;20041;-34
2022/05/26 12:35:23;;;;;;;4.20;1.00;;;;;;;;;;5052434;28;20163;-33
2022/05/26 12:38:07;;;;;;;3.70;1.30;;;;;;;;;;5033765;28;20087;-33
2022/05/26 12:40:52;;;;;;;3.28;1.15;;;;;;;;;;5052297;28;20060;-36
2022/05/26 12:43:41;;;;;;;2.67;1.10;;;;;;;;;;5052776;28;20042;-33
2022/05/26 12:46:25;;;;;;;3.33;1.27;;;;;;;;;;5026831;28;20053;-31
2022/05/26 12:49:10;;;;;;;4.97;1.33;;;;;;;;;;5052409;28;20041;-34
2022/05/26 12:51:37;;;;;;;3.38;1.42;;;;;;;;;;5052784;28;20045;-33
2022/05/26 12:54:05;;;;;;;4.63;1.60;;;;;;;;;;5052640;28;20466;-33
2022/05/26 12:56:45;;;;;;;4.30;1.40;;;;;;;;;;5052666;28;20033;-33
2022/05/26 12:59:13;;;;;;;6.72;1.42;;;;;;;;;;5051527;28;20041;-32
2022/05/26 13:01:40;;;;;;;2.70;1.13;;;;;;;;;;5052371;28;20114;-33
2022/05/26 13:04:10;;;;;;;4.15;1.10;;;;;;;;;;5052936;28;20077;-32
2022/05/26 13:06:40;;;;;;;7.38;1.33;;;;;;;;;;5046218;28;20052;-32
2022/05/26 13:09:09;;;;;;;3.53;1.20;;;;;;;;;;5040528;28;20430;-34
2022/05/26 13:11:37;;;;;;;3.45;1.30;;;;;;;;;;5048390;28;20029;-35
2022/05/26 13:14:07;;;;;;;4.28;1.55;;;;;;;;;;5032497;28;20052;-34
2022/05/26 13:16:34;;;;;;;3.20;1.25;;;;;;;;;;5044585;28;20044;-33
2022/05/26 13:19:11;;;;;;;38.22;6.20;;;;;;;;;;5052423;28;20041;-33
2022/05/26 13:21:38;;;;;;;4.93;1.50;;;;;;;;;;5034541;28;20048;-34
2022/05/26 13:24:05;;;;;;;3.83;1.30;;;;;;;;;;5052535;28;20037;-34
2022/05/26 13:26:31;;;;;;;3.33;1.30;;;;;;;;;;5052487;28;20376;-32
2022/05/26 13:28:59;;;;;;;3.13;1.50;;;;;;;;;;5052492;28;20103;-32
2022/05/26 13:34:12;;;;;;;3.28;1.23;;;;;;;;;;5052933;28;20037;-33
2022/05/26 13:36:40;;;;;;;3.28;1.20;;;;;;;;;;5051938;28;20040;-32
2022/05/26 13:39:08;;;;;;;5.50;1.30;;;;;;;;;;5052091;28;20156;-36
2022/05/26 13:41:35;;;;;;;5.03;1.40;;;;;;;;;;5052474;28;20080;-32
2022/05/26 13:44:04;;;;;;;6.10;1.48;;;;;;;;;;5018246;28;20080;-32
2022/05/26 13:46:37;;;;;;;4.28;1.55;;;;;;;;;;5041302;28;20041;-33
2022/05/26 13:49:23;;;;;;;5.20;1.90;;;;;;;;;;5033569;28;20045;-31
2022/05/26 13:51:51;;;;;;;3.92;1.55;;;;;;;;;;4985435;28;20531;-30
2022/05/26 13:54:20;;;;;;;5.13;1.80;;;;;;;;;;5032021;28;20048;-31
2022/05/26 13:56:48;;;;;;;3.85;1.52;;;;;;;;;;5029828;28;20037;-31
2022/05/26 13:59:15;;;;;;;4.05;1.70;;;;;;;;;;5033991;28;20049;-34
2022/05/26 14:01:52;;;;;;;5.30;1.88;;;;;;;;;;5030630;28;20045;-32
2022/05/26 14:04:22;;;;;;;5.45;1.65;;;;;;;;;;5039462;28;20132;-33
2022/05/26 14:06:48;;;;;;;7.65;1.83;;;;;;;;;;5036224;28;20132;-33
2022/05/26 14:09:33;;;;;;;4.25;1.40;;;;;;;;;;5030788;28;20073;-32
2022/05/26 14:12:03;;;;;;;6.95;2.00;;;;;;;;;;5031147;28;20053;-32
2022/05/26 14:14:32;;;;;;;4.68;1.55;;;;;;;;;;5032630;28;20056;-30
2022/05/26 14:17:00;;;;;;;5.63;1.95;;;;;;;;;;5046790;28;20040;-32
2022/05/26 14:19:29;;;;;;;6.10;1.50;;;;;;;;;;5032108;28;20036;-32
2022/05/26 14:21:56;;;;;;;5.70;1.95;;;;;;;;;;5033863;28;20095;-31
2022/05/26 14:24:34;;;;;;;4.85;1.50;;;;;;;;;;5025840;28;20445;-34
2022/05/26 14:27:03;;;;;;;5.60;1.98;;;;;;;;;;5043715;28;20437;-32
2022/05/26 14:29:29;;;;;;;5.68;1.75;;;;;;;;;;5043367;28;20045;-34
2022/05/26 14:31:59;;;;;;;7.97;2.45;;;;;;;;;;5043596;28;20040;-34
2022/05/26 14:34:34;;;;;;;4.22;1.63;;;;;;;;;;5042381;28;20536;-33
2022/05/26 14:37:00;;;;;;;4.55;1.80;;;;;;;;;;5051143;28;20060;-32
2022/05/26 14:39:27;;;;;;;6.32;2.13;;;;;;;;;;5050160;28;20041;-35
2022/05/26 14:41:54;;;;;;;10.50;2.15;;;;;;;;;;5050590;28;20039;-33
2022/05/26 14:44:20;;;;;;;3.97;1.92;;;;;;;;;;5050618;28;20123;-33
2022/05/26 14:46:46;;;;;;;7.15;2.33;;;;;;;;;;5050655;28;20037;-33
2022/05/26 14:49:13;;;;;;;6.13;1.92;;;;;;;;;;5050157;28;20423;-31
2022/05/26 14:51:39;;;;;;;7.10;2.30;;;;;;;;;;5050911;28;20546;-32
2022/05/26 14:56:50;;;;;;;5.35;2.10;;;;;;;;;;5049847;28;20123;-34
2022/05/26 14:59:17;;;;;;;6.13;1.88;;;;;;;;;;5048879;28;20033;-33
2022/05/26 15:01:43;;;;;;;4.50;1.70;;;;;;;;;;5044901;28;20132;-32
2022/05/26 15:04:09;;;;;;;6.57;2.00;;;;;;;;;;5040515;28;20042;-34
2022/05/26 15:06:38;;;;;;;5.20;1.92;;;;;;;;;;5034937;28;20037;-33
2022/05/26 15:09:07;;;;;;;7.55;1.90;;;;;;;;;;5034916;28;20120;-31
2022/05/26 15:11:33;;;;;;;4.25;1.88;;;;;;;;;;5035520;28;20112;-31
2022/05/26 15:13:59;;;;;;;5.75;1.70;;;;;;;;;;5042809;28;20045;-33
2022/05/26 15:16:25;;;;;;;5.85;2.00;;;;;;;;;;5052894;28;20037;-34
2022/05/26 15:18:52;;;;;;;6.30;2.38;;;;;;;;;;5054292;28;20033;-32
2022/05/26 15:21:18;;;;;;;4.40;1.92;;;;;;;;;;5054774;28;20068;-32
2022/05/26 15:23:44;;;;;;;5.18;2.03;;;;;;;;;;5055022;28;20045;-32
2022/05/26 15:26:13;;;;;;;4.07;1.80;;;;;;;;;;5039613;28;20048;-31
2022/05/26 15:28:46;;;;;;;3.65;1.80;;;;;;;;;;5046640;28;20534;-33